sensor_id;sensor_type;location;lat;lon;timestamp;temperature;humidity
76613;DHT22;65507;48.454;-2.058;2023-04-01T00:01:59;11.60;77.20
76613;DHT22;65507;48.454;-2.058;2023-04-01T00:04:25;11.50;77.40
76613;DHT22;65507;48.454;-2.058;2023-04-01T00:06:50;11.50;77.70
76613;DHT22;65507;48.454;-2.058;2023-04-01T00:09:17;11.40;77.90
76613;DHT22;65507;48.454;-2.058;2023-04-01T00:11:43;11.30;78.10
76613;DHT22;65507;48.454;-2.058;2023-04-01T00:14:12;11.30;78.30
76613;DHT22;65507;48.454;-2.058;2023-04-01T00:16:38;11.20;78.50
76613;DHT22;65507;48.454;-2.058;2023-04-01T00:19:03;11.20;78.70
76613;DHT22;65507;48.454;-2.058;2023-04-01T00:21:29;11.10;78.60
76613;DHT22;65507;48.454;-2.058;2023-04-01T00:23:55;11.20;78.70
76613;DHT22;65507;48.454;-2.058;2023-04-01T00:26:21;11.10;78.70
76613;DHT22;65507;48.454;-2.058;2023-04-01T00:28:47;11.10;78.80
76613;DHT22;65507;48.454;-2.058;2023-04-01T00:31:14;11.10;78.80
76613;DHT22;65507;48.454;-2.058;2023-04-01T00:33:40;11.20;78.80
76613;DHT22;65507;48.454;-2.058;2023-04-01T00:36:14;11.20;78.70
76613;DHT22;65507;48.454;-2.058;2023-04-01T00:38:40;11.20;78.60
76613;DHT22;65507;48.454;-2.058;2023-04-01T00:41:11;11.20;78.50
76613;DHT22;65507;48.454;-2.058;2023-04-01T00:43:41;11.20;78.50
76613;DHT22;65507;48.454;-2.058;2023-04-01T00:46:07;11.30;78.30
76613;DHT22;65507;48.454;-2.058;2023-04-01T00:48:35;11.30;78.30
76613;DHT22;65507;48.454;-2.058;2023-04-01T00:51:08;11.40;78.20
76613;DHT22;65507;48.454;-2.058;2023-04-01T00:53:39;11.40;78.10
76613;DHT22;65507;48.454;-2.058;2023-04-01T00:56:19;11.40;78.10
76613;DHT22;65507;48.454;-2.058;2023-04-01T00:58:51;11.40;78.00
76613;DHT22;65507;48.454;-2.058;2023-04-01T01:01:18;11.40;77.90
76613;DHT22;65507;48.454;-2.058;2023-04-01T01:03:44;11.40;78.00
76613;DHT22;65507;48.454;-2.058;2023-04-01T01:11:43;11.40;77.90
76613;DHT22;65507;48.454;-2.058;2023-04-01T01:25:14;10.40;77.20
76613;DHT22;65507;48.454;-2.058;2023-04-01T01:27:48;11.50;77.80
76613;DHT22;65507;48.454;-2.058;2023-04-01T01:38:14;11.40;77.80
76613;DHT22;65507;48.454;-2.058;2023-04-01T01:40:43;11.40;77.80
76613;DHT22;65507;48.454;-2.058;2023-04-01T01:43:14;11.40;77.80
76613;DHT22;65507;48.454;-2.058;2023-04-01T01:45:49;11.40;77.80
76613;DHT22;65507;48.454;-2.058;2023-04-01T01:48:16;12.40;78.40
76613;DHT22;65507;48.454;-2.058;2023-04-01T01:50:44;11.40;77.90
76613;DHT22;65507;48.454;-2.058;2023-04-01T01:53:12;11.40;77.90
76613;DHT22;65507;48.454;-2.058;2023-04-01T01:55:44;11.40;78.00
76613;DHT22;65507;48.454;-2.058;2023-04-01T01:58:20;11.40;78.00
76613;DHT22;65507;48.454;-2.058;2023-04-01T02:00:54;11.40;78.20
76613;DHT22;65507;48.454;-2.058;2023-04-01T02:03:22;11.30;78.20
76613;DHT22;65507;48.454;-2.058;2023-04-01T02:05:51;11.30;78.30
76613;DHT22;65507;48.454;-2.058;2023-04-01T02:08:23;11.30;78.30
76613;DHT22;65507;48.454;-2.058;2023-04-01T02:11:02;11.40;78.40
76613;DHT22;65507;48.454;-2.058;2023-04-01T02:13:58;11.40;78.30
76613;DHT22;65507;48.454;-2.058;2023-04-01T02:16:31;11.30;79.30
76613;DHT22;65507;48.454;-2.058;2023-04-01T02:18:58;11.20;78.70
76613;DHT22;65507;48.454;-2.058;2023-04-01T02:21:29;11.10;79.00
76613;DHT22;65507;48.454;-2.058;2023-04-01T02:23:57;11.00;79.30
76613;DHT22;65507;48.454;-2.058;2023-04-01T02:26:24;10.90;79.60
76613;DHT22;65507;48.454;-2.058;2023-04-01T02:28:50;10.90;79.90
76613;DHT22;65507;48.454;-2.058;2023-04-01T02:31:18;10.80;79.90
76613;DHT22;65507;48.454;-2.058;2023-04-01T02:33:44;10.80;79.90
76613;DHT22;65507;48.454;-2.058;2023-04-01T02:36:13;10.70;79.90
76613;DHT22;65507;48.454;-2.058;2023-04-01T02:38:40;10.70;80.00
76613;DHT22;65507;48.454;-2.058;2023-04-01T02:41:06;10.80;80.90
76613;DHT22;65507;48.454;-2.058;2023-04-01T02:43:32;10.80;80.00
76613;DHT22;65507;48.454;-2.058;2023-04-01T02:45:58;10.90;79.80
76613;DHT22;65507;48.454;-2.058;2023-04-01T02:48:24;10.90;79.70
76613;DHT22;65507;48.454;-2.058;2023-04-01T02:50:49;10.90;79.70
76613;DHT22;65507;48.454;-2.058;2023-04-01T02:53:15;10.90;79.70
76613;DHT22;65507;48.454;-2.058;2023-04-01T02:55:41;10.90;79.80
76613;DHT22;65507;48.454;-2.058;2023-04-01T02:58:07;10.80;79.80
76613;DHT22;65507;48.454;-2.058;2023-04-01T03:00:32;10.80;79.90
76613;DHT22;65507;48.454;-2.058;2023-04-01T03:02:58;10.80;79.90
76613;DHT22;65507;48.454;-2.058;2023-04-01T03:05:25;10.80;79.90
76613;DHT22;65507;48.454;-2.058;2023-04-01T03:07:51;10.80;79.80
76613;DHT22;65507;48.454;-2.058;2023-04-01T03:10:17;10.80;79.80
76613;DHT22;65507;48.454;-2.058;2023-04-01T03:12:42;10.90;79.90
76613;DHT22;65507;48.454;-2.058;2023-04-01T03:15:11;10.90;79.70
76613;DHT22;65507;48.454;-2.058;2023-04-01T03:17:38;10.90;79.70
76613;DHT22;65507;48.454;-2.058;2023-04-01T03:20:04;10.90;79.70
76613;DHT22;65507;48.454;-2.058;2023-04-01T03:22:30;11.00;79.70
76613;DHT22;65507;48.454;-2.058;2023-04-01T03:24:56;11.00;79.70
76613;DHT22;65507;48.454;-2.058;2023-04-01T03:27:22;11.00;79.60
76613;DHT22;65507;48.454;-2.058;2023-04-01T03:29:48;11.00;79.60
76613;DHT22;65507;48.454;-2.058;2023-04-01T03:32:14;11.00;79.70
76613;DHT22;65507;48.454;-2.058;2023-04-01T03:34:40;11.00;79.70
76613;DHT22;65507;48.454;-2.058;2023-04-01T03:37:05;11.00;79.70
76613;DHT22;65507;48.454;-2.058;2023-04-01T03:39:31;11.00;79.70
76613;DHT22;65507;48.454;-2.058;2023-04-01T03:41:57;11.00;79.70
76613;DHT22;65507;48.454;-2.058;2023-04-01T03:44:23;11.00;79.60
76613;DHT22;65507;48.454;-2.058;2023-04-01T03:46:48;11.10;79.50
76613;DHT22;65507;48.454;-2.058;2023-04-01T03:49:14;11.10;79.60
76613;DHT22;65507;48.454;-2.058;2023-04-01T03:51:41;11.10;79.70
76613;DHT22;65507;48.454;-2.058;2023-04-01T03:54:09;11.00;79.70
76613;DHT22;65507;48.454;-2.058;2023-04-01T03:56:36;11.00;79.70
76613;DHT22;65507;48.454;-2.058;2023-04-01T03:59:04;11.00;79.70
76613;DHT22;65507;48.454;-2.058;2023-04-01T04:01:30;11.00;79.70
76613;DHT22;65507;48.454;-2.058;2023-04-01T04:03:57;11.00;79.70
76613;DHT22;65507;48.454;-2.058;2023-04-01T04:06:23;11.00;79.70
76613;DHT22;65507;48.454;-2.058;2023-04-01T04:08:49;11.00;80.00
76613;DHT22;65507;48.454;-2.058;2023-04-01T04:11:16;11.00;79.90
76613;DHT22;65507;48.454;-2.058;2023-04-01T04:13:42;10.90;80.10
76613;DHT22;65507;48.454;-2.058;2023-04-01T04:16:09;10.80;80.30
76613;DHT22;65507;48.454;-2.058;2023-04-01T04:18:35;10.80;80.50
76613;DHT22;65507;48.454;-2.058;2023-04-01T04:21:02;10.70;80.60
76613;DHT22;65507;48.454;-2.058;2023-04-01T04:23:27;10.70;80.70
76613;DHT22;65507;48.454;-2.058;2023-04-01T04:26:05;10.60;80.70
76613;DHT22;65507;48.454;-2.058;2023-04-01T04:28:31;10.60;80.90
76613;DHT22;65507;48.454;-2.058;2023-04-01T04:30:57;10.60;81.00
76613;DHT22;65507;48.454;-2.058;2023-04-01T04:33:23;10.50;80.90
76613;DHT22;65507;48.454;-2.058;2023-04-01T04:35:49;10.60;81.00
76613;DHT22;65507;48.454;-2.058;2023-04-01T04:38:15;10.50;80.90
76613;DHT22;65507;48.454;-2.058;2023-04-01T04:40:42;10.60;81.00
76613;DHT22;65507;48.454;-2.058;2023-04-01T04:43:10;10.60;81.00
76613;DHT22;65507;48.454;-2.058;2023-04-01T04:45:36;10.60;81.00
76613;DHT22;65507;48.454;-2.058;2023-04-01T04:48:02;10.70;80.90
76613;DHT22;65507;48.454;-2.058;2023-04-01T04:50:28;10.70;80.80
76613;DHT22;65507;48.454;-2.058;2023-04-01T04:52:53;10.80;80.80
76613;DHT22;65507;48.454;-2.058;2023-04-01T04:55:19;10.80;80.70
76613;DHT22;65507;48.454;-2.058;2023-04-01T04:57:45;10.90;80.60
76613;DHT22;65507;48.454;-2.058;2023-04-01T05:00:11;11.00;80.60
76613;DHT22;65507;48.454;-2.058;2023-04-01T05:02:37;11.00;80.60
76613;DHT22;65507;48.454;-2.058;2023-04-01T05:05:03;11.00;80.50
76613;DHT22;65507;48.454;-2.058;2023-04-01T05:07:29;11.00;80.60
76613;DHT22;65507;48.454;-2.058;2023-04-01T05:09:55;11.00;80.50
76613;DHT22;65507;48.454;-2.058;2023-04-01T05:12:21;11.00;80.60
76613;DHT22;65507;48.454;-2.058;2023-04-01T05:14:47;11.00;80.80
76613;DHT22;65507;48.454;-2.058;2023-04-01T05:17:13;10.90;81.00
76613;DHT22;65507;48.454;-2.058;2023-04-01T05:19:39;10.90;80.90
76613;DHT22;65507;48.454;-2.058;2023-04-01T05:22:05;10.80;80.90
76613;DHT22;65507;48.454;-2.058;2023-04-01T05:24:31;10.80;81.00
76613;DHT22;65507;48.454;-2.058;2023-04-01T05:26:57;10.80;81.10
76613;DHT22;65507;48.454;-2.058;2023-04-01T05:29:24;10.80;81.00
76613;DHT22;65507;48.454;-2.058;2023-04-01T05:31:50;10.80;81.00
76613;DHT22;65507;48.454;-2.058;2023-04-01T05:34:16;10.80;80.90
76613;DHT22;65507;48.454;-2.058;2023-04-01T05:36:42;10.80;80.90
76613;DHT22;65507;48.454;-2.058;2023-04-01T05:39:08;10.80;80.80
76613;DHT22;65507;48.454;-2.058;2023-04-01T05:41:38;10.80;80.70
76613;DHT22;65507;48.454;-2.058;2023-04-01T05:44:04;10.80;80.90
76613;DHT22;65507;48.454;-2.058;2023-04-01T05:46:30;10.70;81.00
76613;DHT22;65507;48.454;-2.058;2023-04-01T05:48:56;10.70;81.00
76613;DHT22;65507;48.454;-2.058;2023-04-01T05:51:22;10.60;81.10
76613;DHT22;65507;48.454;-2.058;2023-04-01T05:53:47;10.60;81.20
76613;DHT22;65507;48.454;-2.058;2023-04-01T05:56:13;10.60;81.10
76613;DHT22;65507;48.454;-2.058;2023-04-01T05:58:39;10.60;81.10
76613;DHT22;65507;48.454;-2.058;2023-04-01T06:01:08;10.60;81.10
76613;DHT22;65507;48.454;-2.058;2023-04-01T06:03:34;10.50;81.00
76613;DHT22;65507;48.454;-2.058;2023-04-01T06:06:00;10.50;81.10
76613;DHT22;65507;48.454;-2.058;2023-04-01T06:08:27;10.50;81.10
76613;DHT22;65507;48.454;-2.058;2023-04-01T06:22:19;10.50;81.20
76613;DHT22;65507;48.454;-2.058;2023-04-01T06:40:52;10.80;80.40
76613;DHT22;65507;48.454;-2.058;2023-04-01T06:49:21;10.90;80.30
76613;DHT22;65507;48.454;-2.058;2023-04-01T06:54:32;11.00;80.10
76613;DHT22;65507;48.454;-2.058;2023-04-01T06:57:05;11.00;80.00
76613;DHT22;65507;48.454;-2.058;2023-04-01T06:59:35;11.10;80.00
76613;DHT22;65507;48.454;-2.058;2023-04-01T07:02:41;11.10;79.90
76613;DHT22;65507;48.454;-2.058;2023-04-01T07:05:05;11.10;79.90
76613;DHT22;65507;48.454;-2.058;2023-04-01T07:07:36;11.00;80.00
76613;DHT22;65507;48.454;-2.058;2023-04-01T07:10:09;11.00;80.00
76613;DHT22;65507;48.454;-2.058;2023-04-01T07:12:55;11.00;80.00
76613;DHT22;65507;48.454;-2.058;2023-04-01T07:17:58;11.00;80.00
76613;DHT22;65507;48.454;-2.058;2023-04-01T07:20:29;11.00;79.90
76613;DHT22;65507;48.454;-2.058;2023-04-01T07:23:22;11.10;79.80
76613;DHT22;65507;48.454;-2.058;2023-04-01T07:25:52;11.10;79.70
76613;DHT22;65507;48.454;-2.058;2023-04-01T07:28:19;11.20;79.40
76613;DHT22;65507;48.454;-2.058;2023-04-01T07:33:39;11.40;79.20
76613;DHT22;65507;48.454;-2.058;2023-04-01T07:36:38;11.50;79.00
76613;DHT22;65507;48.454;-2.058;2023-04-01T07:39:08;11.60;79.00
76613;DHT22;65507;48.454;-2.058;2023-04-01T07:41:44;11.70;78.80
76613;DHT22;65507;48.454;-2.058;2023-04-01T07:44:27;11.70;78.60
76613;DHT22;65507;48.454;-2.058;2023-04-01T07:50:10;11.80;78.70
76613;DHT22;65507;48.454;-2.058;2023-04-01T07:52:53;11.90;78.50
76613;DHT22;65507;48.454;-2.058;2023-04-01T08:01:19;12.20;78.00
76613;DHT22;65507;48.454;-2.058;2023-04-01T08:03:52;12.20;78.00
76613;DHT22;65507;48.454;-2.058;2023-04-01T08:06:34;12.20;78.00
76613;DHT22;65507;48.454;-2.058;2023-04-01T08:11:53;12.40;77.70
76613;DHT22;65507;48.454;-2.058;2023-04-01T08:23:06;12.40;77.50
76613;DHT22;65507;48.454;-2.058;2023-04-01T08:25:34;12.30;77.50
76613;DHT22;65507;48.454;-2.058;2023-04-01T08:30:58;12.30;77.40
76613;DHT22;65507;48.454;-2.058;2023-04-01T08:33:30;12.30;77.20
76613;DHT22;65507;48.454;-2.058;2023-04-01T08:36:06;12.30;77.10
76613;DHT22;65507;48.454;-2.058;2023-04-01T08:41:37;12.20;77.00
76613;DHT22;65507;48.454;-2.058;2023-04-01T08:44:34;12.30;76.90
76613;DHT22;65507;48.454;-2.058;2023-04-01T08:50:24;12.40;76.60
76613;DHT22;65507;48.454;-2.058;2023-04-01T08:53:35;12.40;76.40
76613;DHT22;65507;48.454;-2.058;2023-04-01T08:56:29;12.40;76.30
76613;DHT22;65507;48.454;-2.058;2023-04-01T08:59:17;12.50;76.20
76613;DHT22;65507;48.454;-2.058;2023-04-01T09:04:37;12.50;76.10
76613;DHT22;65507;48.454;-2.058;2023-04-01T09:21:22;12.70;75.20
76613;DHT22;65507;48.454;-2.058;2023-04-01T09:24:13;12.80;75.00
76613;DHT22;65507;48.454;-2.058;2023-04-01T09:44:00;12.90;74.80
76613;DHT22;65507;48.454;-2.058;2023-04-01T09:58:39;13.20;74.20
76613;DHT22;65507;48.454;-2.058;2023-04-01T10:29:48;13.60;73.50
76613;DHT22;65507;48.454;-2.058;2023-04-01T10:38:19;13.00;75.30
76613;DHT22;65507;48.454;-2.058;2023-04-01T11:09:00;12.30;77.10
76613;DHT22;65507;48.454;-2.058;2023-04-01T11:12:01;12.50;76.90
76613;DHT22;65507;48.454;-2.058;2023-04-01T11:23:15;13.30;75.30
76613;DHT22;65507;48.454;-2.058;2023-04-01T11:26:07;13.20;75.20
76613;DHT22;65507;48.454;-2.058;2023-04-01T11:28:40;13.10;75.30
76613;DHT22;65507;48.454;-2.058;2023-04-01T11:39:52;13.40;74.90
76613;DHT22;65507;48.454;-2.058;2023-04-01T11:51:04;13.60;73.60
76613;DHT22;65507;48.454;-2.058;2023-04-01T12:04:38;14.10;72.30
76613;DHT22;65507;48.454;-2.058;2023-04-01T12:07:16;14.10;71.70
76613;DHT22;65507;48.454;-2.058;2023-04-01T12:09:47;14.00;72.00
76613;DHT22;65507;48.454;-2.058;2023-04-01T12:18:21;14.00;72.50
76613;DHT22;65507;48.454;-2.058;2023-04-01T12:26:58;13.90;70.80
76613;DHT22;65507;48.454;-2.058;2023-04-01T12:35:21;14.20;69.80
76613;DHT22;65507;48.454;-2.058;2023-04-01T12:46:26;14.40;69.20
76613;DHT22;65507;48.454;-2.058;2023-04-01T12:59:49;14.70;68.90
76613;DHT22;65507;48.454;-2.058;2023-04-01T13:02:22;14.70;68.90
76613;DHT22;65507;48.454;-2.058;2023-04-01T13:04:56;14.70;68.80
76613;DHT22;65507;48.454;-2.058;2023-04-01T13:07:39;14.60;68.50
76613;DHT22;65507;48.454;-2.058;2023-04-01T13:10:56;14.60;68.50
76613;DHT22;65507;48.454;-2.058;2023-04-01T13:15:30;14.20;69.90
76613;DHT22;65507;48.454;-2.058;2023-04-01T13:18:16;14.00;69.20
76613;DHT22;65507;48.454;-2.058;2023-04-01T13:36:10;14.10;68.00
76613;DHT22;65507;48.454;-2.058;2023-04-01T13:38:45;14.20;67.90
76613;DHT22;65507;48.454;-2.058;2023-04-01T13:57:38;15.00;66.30
76613;DHT22;65507;48.454;-2.058;2023-04-01T14:10:46;15.10;65.90
76613;DHT22;65507;48.454;-2.058;2023-04-01T14:13:28;15.10;66.20
76613;DHT22;65507;48.454;-2.058;2023-04-01T14:16:03;15.00;66.40
76613;DHT22;65507;48.454;-2.058;2023-04-01T14:22:02;14.90;66.60
76613;DHT22;65507;48.454;-2.058;2023-04-01T14:37:00;14.20;67.40
76613;DHT22;65507;48.454;-2.058;2023-04-01T14:39:33;14.20;67.30
76613;DHT22;65507;48.454;-2.058;2023-04-01T14:49:32;14.40;67.20
76613;DHT22;65507;48.454;-2.058;2023-04-01T14:54:46;14.60;66.50
76613;DHT22;65507;48.454;-2.058;2023-04-01T14:59:41;14.50;66.40
76613;DHT22;65507;48.454;-2.058;2023-04-01T15:02:14;14.40;66.50
76613;DHT22;65507;48.454;-2.058;2023-04-01T15:04:56;14.30;66.70
76613;DHT22;65507;48.454;-2.058;2023-04-01T15:20:36;14.20;66.70
76613;DHT22;65507;48.454;-2.058;2023-04-01T15:23:25;14.20;66.80
76613;DHT22;65507;48.454;-2.058;2023-04-01T15:28:35;14.30;66.40
76613;DHT22;65507;48.454;-2.058;2023-04-01T15:31:17;14.30;66.10
76613;DHT22;65507;48.454;-2.058;2023-04-01T15:36:36;14.30;66.00
76613;DHT22;65507;48.454;-2.058;2023-04-01T15:39:28;14.30;66.10
76613;DHT22;65507;48.454;-2.058;2023-04-01T15:42:04;14.20;66.20
76613;DHT22;65507;48.454;-2.058;2023-04-01T15:47:07;14.30;66.50
76613;DHT22;65507;48.454;-2.058;2023-04-01T15:49:51;14.20;66.40
76613;DHT22;65507;48.454;-2.058;2023-04-01T16:00:22;14.00;66.60
76613;DHT22;65507;48.454;-2.058;2023-04-01T16:03:09;13.90;66.90
76613;DHT22;65507;48.454;-2.058;2023-04-01T16:05:42;13.80;67.20
76613;DHT22;65507;48.454;-2.058;2023-04-01T16:15:40;13.80;67.40
76613;DHT22;65507;48.454;-2.058;2023-04-01T16:18:21;13.80;67.40
76613;DHT22;65507;48.454;-2.058;2023-04-01T16:26:16;13.70;67.80
76613;DHT22;65507;48.454;-2.058;2023-04-01T16:39:09;13.70;67.70
76613;DHT22;65507;48.454;-2.058;2023-04-01T16:41:38;13.60;67.80
76613;DHT22;65507;48.454;-2.058;2023-04-01T16:44:22;13.60;67.90
76613;DHT22;65507;48.454;-2.058;2023-04-01T16:49:36;13.60;68.00
76613;DHT22;65507;48.454;-2.058;2023-04-01T16:59:38;13.60;67.90
76613;DHT22;65507;48.454;-2.058;2023-04-01T17:04:37;13.60;68.30
76613;DHT22;65507;48.454;-2.058;2023-04-01T17:16:54;13.50;68.70
76613;DHT22;65507;48.454;-2.058;2023-04-01T17:19:37;13.40;68.90
76613;DHT22;65507;48.454;-2.058;2023-04-01T17:24:54;13.20;69.50
76613;DHT22;65507;48.454;-2.058;2023-04-01T17:35:09;13.00;70.00
76613;DHT22;65507;48.454;-2.058;2023-04-01T17:37:40;12.90;70.10
76613;DHT22;65507;48.454;-2.058;2023-04-01T17:42:40;12.80;70.50
76613;DHT22;65507;48.454;-2.058;2023-04-01T17:48:03;12.70;70.80
76613;DHT22;65507;48.454;-2.058;2023-04-01T17:50:36;12.70;71.20
76613;DHT22;65507;48.454;-2.058;2023-04-01T17:53:14;12.70;71.20
76613;DHT22;65507;48.454;-2.058;2023-04-01T17:58:10;12.60;71.40
76613;DHT22;65507;48.454;-2.058;2023-04-01T18:06:02;12.40;71.90
76613;DHT22;65507;48.454;-2.058;2023-04-01T18:13:59;12.40;72.00
76613;DHT22;65507;48.454;-2.058;2023-04-01T18:21:56;12.30;72.20
76613;DHT22;65507;48.454;-2.058;2023-04-01T18:27:02;12.30;72.50
76613;DHT22;65507;48.454;-2.058;2023-04-01T18:32:13;12.20;72.70
76613;DHT22;65507;48.454;-2.058;2023-04-01T18:37:54;12.20;73.00
76613;DHT22;65507;48.454;-2.058;2023-04-01T18:47:43;12.10;73.30
76613;DHT22;65507;48.454;-2.058;2023-04-01T18:55:41;11.90;73.60
76613;DHT22;65507;48.454;-2.058;2023-04-01T19:05:54;11.80;74.10
76613;DHT22;65507;48.454;-2.058;2023-04-01T19:21:13;11.60;74.70
76613;DHT22;65507;48.454;-2.058;2023-04-01T19:26:13;11.50;74.80
76613;DHT22;65507;48.454;-2.058;2023-04-01T19:28:48;11.50;74.80
76613;DHT22;65507;48.454;-2.058;2023-04-01T19:31:30;11.50;75.00
76613;DHT22;65507;48.454;-2.058;2023-04-01T19:34:11;11.50;75.10
76613;DHT22;65507;48.454;-2.058;2023-04-01T19:36:59;11.50;75.00
76613;DHT22;65507;48.454;-2.058;2023-04-01T19:42:08;11.50;75.40
76613;DHT22;65507;48.454;-2.058;2023-04-01T19:52:22;11.50;75.30
76613;DHT22;65507;48.454;-2.058;2023-04-01T19:57:30;11.50;75.40
76613;DHT22;65507;48.454;-2.058;2023-04-01T20:00:05;11.50;75.40
76613;DHT22;65507;48.454;-2.058;2023-04-01T20:05:20;11.50;75.50
76613;DHT22;65507;48.454;-2.058;2023-04-01T20:07:51;11.60;75.50
76613;DHT22;65507;48.454;-2.058;2023-04-01T20:15:29;11.60;76.00
76613;DHT22;65507;48.454;-2.058;2023-04-01T20:17:58;11.50;76.10
76613;DHT22;65507;48.454;-2.058;2023-04-01T20:20:25;11.50;76.20
76613;DHT22;65507;48.454;-2.058;2023-04-01T20:28:28;11.50;76.40
76613;DHT22;65507;48.454;-2.058;2023-04-01T20:40:58;11.50;76.70
76613;DHT22;65507;48.454;-2.058;2023-04-01T20:48:25;11.50;76.90
76613;DHT22;65507;48.454;-2.058;2023-04-01T20:50:56;11.50;77.00
76613;DHT22;65507;48.454;-2.058;2023-04-01T21:04:04;11.60;77.00
76613;DHT22;65507;48.454;-2.058;2023-04-01T21:06:41;11.60;77.00
76613;DHT22;65507;48.454;-2.058;2023-04-01T21:17:00;11.60;77.30
76613;DHT22;65507;48.454;-2.058;2023-04-01T21:19:34;11.40;77.50
76613;DHT22;65507;48.454;-2.058;2023-04-01T21:42:32;11.60;78.30
76613;DHT22;65507;48.454;-2.058;2023-04-01T21:45:24;11.60;78.40
76613;DHT22;65507;48.454;-2.058;2023-04-01T21:47:57;11.60;78.50
76613;DHT22;65507;48.454;-2.058;2023-04-01T22:08:54;11.20;79.40
76613;DHT22;65507;48.454;-2.058;2023-04-01T22:13:50;11.10;79.80
76613;DHT22;65507;48.454;-2.058;2023-04-01T22:29:20;10.90;79.90
76613;DHT22;65507;48.454;-2.058;2023-04-01T22:31:42;10.90;79.90
76613;DHT22;65507;48.454;-2.058;2023-04-01T22:39:32;10.80;80.10
76613;DHT22;65507;48.454;-2.058;2023-04-01T22:44:51;10.80;80.00
76613;DHT22;65507;48.454;-2.058;2023-04-01T22:49:59;10.80;80.10
76613;DHT22;65507;48.454;-2.058;2023-04-01T22:54:58;10.80;80.10
76613;DHT22;65507;48.454;-2.058;2023-04-01T23:00:13;10.80;80.20
76613;DHT22;65507;48.454;-2.058;2023-04-01T23:02:47;10.80;80.20
76613;DHT22;65507;48.454;-2.058;2023-04-01T23:05:17;10.80;80.10
76613;DHT22;65507;48.454;-2.058;2023-04-01T23:10:25;10.90;80.10
76613;DHT22;65507;48.454;-2.058;2023-04-01T23:12:51;10.90;79.90
76613;DHT22;65507;48.454;-2.058;2023-04-01T23:15:18;10.90;79.90
76613;DHT22;65507;48.454;-2.058;2023-04-01T23:35:50;11.10;79.50
76613;DHT22;65507;48.454;-2.058;2023-04-01T23:38:16;11.10;79.60
76613;DHT22;65507;48.454;-2.058;2023-04-01T23:40:42;11.10;79.60
76613;DHT22;65507;48.454;-2.058;2023-04-01T23:43:41;11.10;79.60
76613;DHT22;65507;48.454;-2.058;2023-04-01T23:46:00;11.10;79.60
76613;DHT22;65507;48.454;-2.058;2023-04-01T23:48:32;11.20;79.60
76613;DHT22;65507;48.454;-2.058;2023-04-01T23:50:58;11.20;79.60
76613;DHT22;65507;48.454;-2.058;2023-04-01T23:53:25;11.20;79.60
76613;DHT22;65507;48.454;-2.058;2023-04-01T23:55:52;11.20;79.50
76613;DHT22;65507;48.454;-2.058;2023-04-01T23:58:25;11.20;79.50
